Wilson Observed Data For Previous 48 Hours

Caption
Day and Hour Reservoir Elevation (behind dam)* Tailwater Elevation (below dam)* Average Hourly Discharge*
9/20/2018 1 AM CDT 507.13 412.28 14,096
9/20/2018 2 AM CDT 507.17 412.30 13,993
9/20/2018 3 AM CDT 507.18 412.40 13,847
9/20/2018 4 AM CDT 507.20 412.49 13,871
9/20/2018 5 AM CDT 507.24 412.43 13,939
9/20/2018 6 AM CDT 507.25 412.36 14,143
9/20/2018 7 AM CDT 507.29 412.29 14,140
9/20/2018 8 AM CDT 507.32 412.33 13,824
9/20/2018 9 AM CDT 507.34 412.65 14,105
9/20/2018 10 AM CDT 507.32 413.26 15,068
9/20/2018 11 AM CDT 507.36 414.96 36,211
9/20/2018 12 PM CDT 507.39 415.43 51,147
9/20/2018 1 PM CDT 507.23 417.14 64,007
9/20/2018 2 PM CDT 507.41 418.54 95,027
9/20/2018 3 PM CDT 507.41 418.68 95,856
9/20/2018 4 PM CDT 507.31 418.68 96,166
9/20/2018 5 PM CDT 507.30 418.84 96,359
9/20/2018 6 PM CDT 507.28 418.73 96,674
9/20/2018 7 PM CDT 507.21 417.68 78,896
9/20/2018 8 PM CDT 507.29 415.79 54,622
9/20/2018 9 PM CDT 507.33 414.29 34,203
9/20/2018 10 PM CDT 507.33 412.46 14,263
9/20/2018 11 PM CDT 507.40 412.89 13,908
9/21/2018 12 AM CDT 507.40 412.86 13,935
9/21/2018 1 AM CDT 507.42 413.25 13,885
9/21/2018 2 AM CDT 507.43 413.15 13,955
9/21/2018 3 AM CDT 507.48 412.95 13,980
9/21/2018 4 AM CDT 507.48 412.76 13,915
9/21/2018 5 AM CDT 507.50 412.91 14,155
9/21/2018 6 AM CDT 507.52 413.32 20,974
9/21/2018 7 AM CDT 507.46 413.40 20,472
9/21/2018 8 AM CDT 507.48 413.51 20,361
9/21/2018 9 AM CDT 507.49 413.39 21,461
9/21/2018 10 AM CDT 507.42 414.04 21,282
9/21/2018 11 AM CDT 507.51 414.70 36,421
9/21/2018 12 PM CDT 507.41 417.90 60,367
9/21/2018 1 PM CDT 507.41 418.57 95,267
9/21/2018 2 PM CDT 507.46 418.97 95,810
9/21/2018 3 PM CDT 507.35 418.79 96,280
9/21/2018 4 PM CDT 507.30 418.82 96,452
9/21/2018 5 PM CDT 507.33 418.77 96,245
9/21/2018 6 PM CDT 507.21 418.76 96,500
9/21/2018 7 PM CDT 507.20 415.95 51,751
9/21/2018 8 PM CDT 507.34 413.37 21,456
9/21/2018 9 PM CDT 507.39 413.35 20,713
9/21/2018 10 PM CDT 507.36 413.34 21,292
9/21/2018 11 PM CDT 507.34 413.05 14,417
9/22/2018 12 AM CDT 507.38 413.29 14,029
9/22/2018 1 AM CDT 507.43 413.26 14,085
9/22/2018 2 AM CDT 507.42 413.15 14,166
9/22/2018 3 AM CDT 507.46 413.09 13,997
9/22/2018 4 AM CDT 507.48 413.09 14,149
9/22/2018 5 AM CDT 507.49 413.16 14,074
9/22/2018 6 AM CDT 507.52 413.24 14,155
9/22/2018 7 AM CDT 507.54 413.42 14,204
9/22/2018 8 AM CDT 507.53 414.10 21,003
9/22/2018 9 AM CDT 507.50 414.91 34,876
9/22/2018 10 AM CDT 507.49 415.53 45,090
9/22/2018 11 AM CDT 507.43 415.32 44,845
9/22/2018 12 PM CDT 507.38 415.51 43,844
9/22/2018 1 PM CDT 507.53 415.72 50,692
9/22/2018 2 PM CDT 507.46 416.06 57,507
9/22/2018 3 PM CDT 507.45 416.38 57,443
9/22/2018 4 PM CDT 507.54 416.59 58,614

Elevations are in feet above sea level. Discharges are in cubic feet per second and are reported at the end of the hour.